Time;durP1;ratioP1;P1;durP2;ratioP2;P2;SDS_P1;SDS_P2;PMS_P1;PMS_P2;Temp;Humidity;BMP_temperature;BMP_pressure;BME280_temperature;BME280_humidity;BME280_pressure;Samples;Min_cycle;Max_cycle;Signal;HPM_P1;HPM_P2
2023/01/21 00:00:14;;;;;;;20.37;14.50;;;;;;;1.41;83.25;95765.97;5014714;28;20206;-89
2023/01/21 00:02:41;;;;;;;20.20;13.80;;;;;;;1.47;82.96;95764.72;5015426;28;20234;-88
2023/01/21 00:05:08;;;;;;;20.37;13.83;;;;;;;1.45;82.74;95769.09;5015464;28;20213;-88
2023/01/21 00:07:36;;;;;;;21.23;14.30;;;;;;;1.38;83.06;95772.09;5016118;28;20214;-87
2023/01/21 00:10:02;;;;;;;17.30;13.67;;;;;;;1.28;83.75;95763.56;5015781;28;20210;-88
2023/01/21 00:12:29;;;;;;;19.43;13.00;;;;;;;1.34;83.24;95768.19;5014897;28;20235;-87
2023/01/21 00:14:55;;;;;;;18.63;14.27;;;;;;;1.30;83.36;95773.59;5014778;28;20241;-87
2023/01/21 00:17:21;;;;;;;22.90;13.07;;;;;;;1.35;82.78;95769.78;5015217;28;20207;-88
2023/01/21 00:19:48;;;;;;;18.80;13.63;;;;;;;1.38;82.79;95766.19;5015068;28;20202;-88
2023/01/21 00:22:14;;;;;;;19.67;14.80;;;;;;;1.35;82.58;95769.78;5014438;28;20570;-88
2023/01/21 00:24:42;;;;;;;18.67;13.67;;;;;;;1.33;83.68;95766.56;5015385;28;20238;-88
2023/01/21 00:27:09;;;;;;;22.17;14.33;;;;;;;1.37;82.99;95770.47;5015189;28;20210;-87
2023/01/21 00:29:35;;;;;;;18.00;13.90;;;;;;;1.35;83.10;95759.63;5015091;28;20198;-88
2023/01/21 00:32:01;;;;;;;20.50;13.70;;;;;;;1.30;82.78;95759.19;5014808;28;20679;-88
2023/01/21 00:34:28;;;;;;;21.40;15.43;;;;;;;1.26;83.34;95765.41;5015716;28;20232;-88
2023/01/21 00:36:54;;;;;;;17.57;13.47;;;;;;;1.27;83.26;95764.50;5015584;28;20199;-88
2023/01/21 00:39:21;;;;;;;20.97;14.47;;;;;;;1.30;83.35;95769.34;5015359;28;20214;-88
2023/01/21 00:41:49;;;;;;;21.30;14.80;;;;;;;1.26;83.42;95770.47;5014676;28;20214;-89
2023/01/21 00:44:16;;;;;;;18.00;14.27;;;;;;;1.27;83.09;95768.75;5015314;28;20230;-88
2023/01/21 00:46:43;;;;;;;20.40;14.40;;;;;;;1.27;82.68;95772.09;5015071;28;20975;-87
2023/01/21 00:49:09;;;;;;;17.97;14.57;;;;;;;1.31;82.94;95775.22;5018702;28;20202;-89
2023/01/21 00:51:36;;;;;;;18.60;14.47;;;;;;;1.32;82.85;95775.09;5018943;28;20405;-88
2023/01/21 00:54:02;;;;;;;17.43;13.30;;;;;;;1.23;82.79;95782.56;5018310;28;20223;-87
2023/01/21 00:56:28;;;;;;;19.60;13.77;;;;;;;1.20;83.16;95780.25;5017758;28;20229;-88
2023/01/21 00:58:56;;;;;;;18.03;13.47;;;;;;;1.16;83.78;95778.88;5019632;28;20211;-88
2023/01/21 01:01:25;;;;;;;17.90;14.23;;;;;;;1.06;84.07;95788.91;5018256;28;20202;-88
2023/01/21 01:03:52;;;;;;;16.13;13.10;;;;;;;1.08;84.21;95779.47;5018193;28;20227;-88
2023/01/21 01:06:23;;;;;;;18.60;13.27;;;;;;;1.10;83.60;95786.94;5018714;28;20269;-88
2023/01/21 01:08:56;;;;;;;18.37;13.47;;;;;;;1.07;83.79;95787.19;5018775;28;20218;-88
2023/01/21 01:11:24;;;;;;;17.27;13.13;;;;;;;1.04;83.95;95788.22;5018425;28;20195;-88
2023/01/21 01:13:51;;;;;;;18.83;13.97;;;;;;;1.08;83.88;95787.06;5018547;28;20219;-88
2023/01/21 01:16:19;;;;;;;17.57;13.23;;;;;;;1.07;83.58;95792.25;5017831;28;20280;-88
2023/01/21 01:18:46;;;;;;;17.07;13.07;;;;;;;1.19;83.33;95793.88;5018884;28;20721;-88
2023/01/21 01:21:14;;;;;;;17.50;13.67;;;;;;;1.28;82.93;95790.66;5017901;28;20203;-88
2023/01/21 01:23:41;;;;;;;17.23;13.43;;;;;;;1.28;82.74;95791.47;5018379;28;20594;-88
2023/01/21 01:26:10;;;;;;;18.27;13.60;;;;;;;1.20;82.67;95798.00;5018491;28;20195;-88
2023/01/21 01:28:37;;;;;;;18.17;13.33;;;;;;;1.22;82.86;95794.44;5018169;28;20411;-87
2023/01/21 01:31:05;;;;;;;16.27;13.07;;;;;;;1.21;83.00;95795.38;5017816;28;20199;-88
2023/01/21 01:33:33;;;;;;;17.33;13.30;;;;;;;1.26;82.51;95805.19;5017591;28;20219;-87
2023/01/21 01:36:01;;;;;;;17.93;12.60;;;;;;;1.12;82.75;95801.13;5017518;28;20227;-87
2023/01/21 01:38:28;;;;;;;16.67;13.17;;;;;;;1.12;83.33;95803.66;5016816;28;20203;-88
2023/01/21 01:40:54;;;;;;;18.47;13.10;;;;;;;1.19;82.96;95797.19;5017965;28;20206;-88
2023/01/21 01:43:23;;;;;;;17.13;12.50;;;;;;;1.20;82.88;95803.88;5018123;28;20596;-88
2023/01/21 01:45:50;;;;;;;16.37;12.40;;;;;;;1.13;82.80;95790.06;5017845;28;20195;-87
2023/01/21 01:48:22;;;;;;;17.97;13.10;;;;;;;1.14;83.09;95799.28;5017172;28;20211;-88
2023/01/21 01:50:50;;;;;;;15.27;12.50;;;;;;;1.25;83.25;95798.47;5016627;28;20187;-88
2023/01/21 01:53:19;;;;;;;18.27;13.00;;;;;;;1.19;82.28;95801.47;5016704;28;20234;-87
2023/01/21 01:55:47;;;;;;;17.97;13.33;;;;;;;1.20;82.66;95806.44;5017669;28;20230;-88
2023/01/21 01:58:17;;;;;;;17.13;13.07;;;;;;;1.23;82.23;95805.41;5016786;28;20260;-88
2023/01/21 02:00:44;;;;;;;18.57;13.03;;;;;;;1.18;81.82;95805.72;5014156;28;20206;-88
2023/01/21 02:05:58;;;;;;;16.87;12.80;;;;;;;1.30;81.92;95804.84;5015299;28;20579;-88
2023/01/21 02:08:31;;;;;;;17.50;13.73;;;;;;;1.27;81.78;95802.53;5016213;28;20233;-88
2023/01/21 02:10:57;;;;;;;16.17;12.63;;;;;;;1.30;81.69;95804.84;5015639;28;20218;-88
2023/01/21 02:13:26;;;;;;;16.67;12.77;;;;;;;1.30;81.28;95804.84;5016539;28;20229;-88
2023/01/21 02:16:04;;;;;;;17.27;12.97;;;;;;;1.30;81.61;95804.84;5016089;28;20739;-88
2023/01/21 02:18:38;;;;;;;17.67;13.43;;;;;;;1.24;81.63;95795.16;5016104;28;20202;-88
2023/01/21 02:21:32;;;;;;;18.07;13.60;;;;;;;1.19;81.58;95804.81;5016586;28;20211;-87
2023/01/21 02:24:23;;;;;;;16.00;12.73;;;;;;;1.18;81.46;95805.72;5016149;28;20277;-88
2023/01/21 02:27:23;;;;;;;20.30;13.90;;;;;;;1.03;82.27;95805.13;5016656;28;20207;-88
2023/01/21 02:30:13;;;;;;;16.50;13.00;;;;;;;1.11;82.03;95812.19;5017421;28;20207;-87
2023/01/21 02:33:20;;;;;;;16.97;13.23;;;;;;;1.07;81.93;95805.72;5017068;28;20199;-88
2023/01/21 02:35:54;;;;;;;16.23;12.83;;;;;;;1.07;81.98;95804.91;5016174;28;20222;-88
2023/01/21 02:38:28;;;;;;;19.17;13.23;;;;;;;1.09;81.85;95803.88;4985156;28;20234;-88
2023/01/21 02:41:05;;;;;;;18.07;13.83;;;;;;;1.15;81.75;95808.53;5012909;28;20232;-88
2023/01/21 02:43:41;;;;;;;19.17;13.30;;;;;;;1.14;81.43;95808.63;5016387;28;20643;-88
2023/01/21 02:46:16;;;;;;;17.53;13.17;;;;;;;1.05;81.84;95805.03;5016055;28;20202;-87
2023/01/21 02:48:50;;;;;;;17.27;12.67;;;;;;;1.11;81.45;95806.31;5015485;28;20202;-88
2023/01/21 02:51:18;;;;;;;18.00;13.47;;;;;;;1.08;81.27;95811.59;5006684;28;20210;-87
2023/01/21 02:53:45;;;;;;;18.77;14.20;;;;;;;1.14;81.22;95809.44;4996165;28;20750;-88
2023/01/21 02:56:13;;;;;;;20.53;13.87;;;;;;;1.10;81.66;95809.78;4995649;28;20224;-88
2023/01/21 02:58:44;;;;;;;17.67;13.83;;;;;;;1.06;81.28;95806.66;4996640;28;20210;-88
2023/01/21 03:01:22;;;;;;;18.77;13.77;;;;;;;0.97;82.03;95807.31;5006021;28;20195;-88
2023/01/21 03:04:18;;;;;;;18.97;13.63;;;;;;;1.01;81.75;95806.16;5016399;28;20250;-88
2023/01/21 03:06:54;;;;;;;18.43;13.13;;;;;;;1.02;81.83;95811.13;5007237;28;20267;-88
2023/01/21 03:09:23;;;;;;;17.10;12.83;;;;;;;1.01;81.57;95803.63;5016605;28;20211;-88
2023/01/21 03:12:08;;;;;;;18.47;13.07;;;;;;;1.09;81.58;95801.34;5015545;28;20203;-88
2023/01/21 03:17:34;;;;;;;17.50;13.60;;;;;;;1.06;81.73;95803.31;5014513;28;20201;-88
2023/01/21 03:20:09;;;;;;;17.17;12.50;;;;;;;1.01;81.23;95801.09;5014205;28;20202;-88
2023/01/21 03:22:40;;;;;;;16.03;12.47;;;;;;;0.94;82.29;95800.75;5013659;28;20206;-88
2023/01/21 03:25:09;;;;;;;18.73;13.07;;;;;;;0.97;82.30;95803.06;5014907;28;20653;-88
2023/01/21 03:27:43;;;;;;;16.20;13.43;;;;;;;1.07;82.02;95803.19;5014735;28;20286;-88
2023/01/21 03:30:14;;;;;;;17.10;13.10;;;;;;;1.12;81.39;95805.41;5014186;28;20272;-88
2023/01/21 03:32:43;;;;;;;18.87;13.77;;;;;;;1.14;81.73;95796.75;5006885;28;20206;-87
2023/01/21 03:35:14;;;;;;;20.03;14.13;;;;;;;1.06;81.76;95798.22;5015147;28;20205;-88
2023/01/21 03:37:45;;;;;;;18.73;14.03;;;;;;;1.06;81.33;95799.03;5015284;28;20191;-88
2023/01/21 03:40:20;;;;;;;20.40;13.83;;;;;;;1.01;81.75;95796.84;5015688;28;20198;-88
2023/01/21 03:42:49;;;;;;;18.73;13.07;;;;;;;1.06;81.65;95795.69;5015205;28;20222;-88
2023/01/21 03:45:17;;;;;;;17.77;12.93;;;;;;;1.00;81.67;95792.69;5015294;28;20202;-88
2023/01/21 03:47:51;;;;;;;17.77;13.70;;;;;;;1.09;81.41;95788.69;5014281;28;20210;-88
2023/01/21 03:50:23;;;;;;;18.10;13.40;;;;;;;1.07;81.28;95787.97;5013927;28;20385;-87
2023/01/21 03:52:50;;;;;;;18.37;13.40;;;;;;;1.07;81.66;95792.25;5014291;28;20727;-87
2023/01/21 03:55:17;;;;;;;19.30;13.97;;;;;;;1.07;80.96;95794.78;5013606;28;20210;-88
2023/01/21 03:57:44;;;;;;;19.87;14.13;;;;;;;0.99;81.52;95788.53;5013997;28;20206;-88
2023/01/21 04:00:12;;;;;;;18.53;13.63;;;;;;;0.92;82.34;95789.13;5013191;28;20214;-88
2023/01/21 04:02:38;;;;;;;18.20;13.73;;;;;;;0.93;82.64;95791.53;5013027;28;20257;-88
2023/01/21 04:05:05;;;;;;;19.97;14.20;;;;;;;1.00;82.63;95792.69;5014633;28;20289;-88
2023/01/21 04:07:33;;;;;;;19.60;13.80;;;;;;;1.00;82.74;95791.88;5014338;28;20229;-88
2023/01/21 04:09:59;;;;;;;19.13;14.17;;;;;;;1.02;82.69;95787.50;5013983;28;20202;-88
2023/01/21 04:12:28;;;;;;;19.37;14.47;;;;;;;1.06;82.21;95786.38;5014380;28;20206;-88
2023/01/21 04:14:54;;;;;;;18.23;14.30;;;;;;;1.14;81.90;95784.09;5014309;28;20198;-88
2023/01/21 04:17:21;;;;;;;20.50;14.50;;;;;;;1.08;81.19;95794.66;5014866;28;20287;-89
2023/01/21 04:19:50;;;;;;;17.97;14.17;;;;;;;1.06;81.91;95786.38;5014428;28;20198;-88
2023/01/21 04:22:17;;;;;;;19.13;13.97;;;;;;;0.99;82.24;95800.41;5013677;28;20210;-88
2023/01/21 04:24:44;;;;;;;20.47;15.27;;;;;;;0.99;82.03;95801.22;5017408;28;20249;-88
2023/01/21 04:27:11;;;;;;;18.83;13.50;;;;;;;0.98;81.92;95798.78;5020590;28;20199;-88
2023/01/21 04:29:37;;;;;;;19.57;14.30;;;;;;;1.06;82.01;95793.97;5014754;28;20679;-88
2023/01/21 04:32:04;;;;;;;18.43;14.07;;;;;;;0.98;81.92;95798.78;5013727;28;20207;-88
2023/01/21 04:34:30;;;;;;;20.67;15.07;;;;;;;1.06;81.85;95795.69;5013924;28;20218;-88
2023/01/21 04:36:56;;;;;;;21.97;16.03;;;;;;;1.12;81.85;95805.41;5015695;28;20227;-88
2023/01/21 04:39:23;;;;;;;20.23;15.63;;;;;;;1.07;81.34;95803.19;5013414;28;20206;-88
2023/01/21 04:41:51;;;;;;;21.50;16.10;;;;;;;1.03;81.59;95800.06;5013256;28;20616;-88
2023/01/21 04:44:17;;;;;;;22.43;15.57;;;;;;;1.08;81.48;95798.94;5013646;28;20226;-87
2023/01/21 04:46:43;;;;;;;22.67;15.80;;;;;;;1.01;81.38;95801.91;5013799;28;20195;-88
2023/01/21 04:49:10;;;;;;;20.57;15.17;;;;;;;1.08;81.17;95804.81;5013491;28;20294;-87
2023/01/21 04:51:36;;;;;;;20.57;15.57;;;;;;;1.14;81.07;95808.63;5001290;28;20211;-89
2023/01/21 04:54:03;;;;;;;21.70;15.13;;;;;;;0.98;81.10;95808.94;4993262;28;20235;-87
2023/01/21 04:56:29;;;;;;;21.20;15.77;;;;;;;1.03;80.99;95814.47;5008861;28;20222;-88
2023/01/21 04:58:57;;;;;;;22.63;15.73;;;;;;;1.07;81.02;95813.34;5013131;28;20211;-88
2023/01/21 05:01:23;;;;;;;22.00;15.60;;;;;;;1.07;80.94;95820.13;5012307;28;20199;-87
2023/01/21 05:03:50;;;;;;;20.90;16.03;;;;;;;0.92;81.12;95820.34;5013003;28;20223;-88
2023/01/21 05:06:17;;;;;;;21.10;15.90;;;;;;;0.82;81.85;95819.38;5013859;28;20207;-88
2023/01/21 05:08:43;;;;;;;21.43;15.30;;;;;;;0.79;81.91;95809.47;5012912;28;20626;-88
2023/01/21 05:11:11;;;;;;;24.30;16.17;;;;;;;0.78;81.62;95817.97;5013055;28;20210;-87
2023/01/21 05:13:38;;;;;;;22.50;15.90;;;;;;;0.72;82.30;95815.91;5013455;28;20231;-88
2023/01/21 05:16:08;;;;;;;21.83;15.43;;;;;;;0.75;81.70;95820.75;5011882;28;20222;-88
2023/01/21 05:18:35;;;;;;;20.93;15.73;;;;;;;0.80;81.82;95816.16;5012820;28;20233;-88
2023/01/21 05:21:01;;;;;;;21.53;15.77;;;;;;;0.78;81.64;95814.63;5013373;28;20581;-87
2023/01/21 05:23:28;;;;;;;22.17;15.43;;;;;;;0.82;81.42;95814.31;5012604;28;20233;-88
2023/01/21 05:25:54;;;;;;;20.13;15.23;;;;;;;0.75;81.73;95809.81;5013412;28;20195;-88
2023/01/21 05:28:21;;;;;;;24.40;16.10;;;;;;;0.78;81.78;95805.31;5013581;28;20556;-87
2023/01/21 05:30:47;;;;;;;21.47;15.17;;;;;;;0.78;81.81;95814.63;5012595;28;20214;-89
2023/01/21 05:33:15;;;;;;;22.13;15.63;;;;;;;0.80;82.06;95815.34;5013502;28;20223;-88
2023/01/21 05:35:41;;;;;;;25.13;15.20;;;;;;;0.83;81.50;95807.50;5016233;28;20672;-88
2023/01/21 05:38:08;;;;;;;22.50;15.50;;;;;;;0.83;81.37;95807.50;5016698;28;20238;-88
2023/01/21 05:40:34;;;;;;;22.30;15.33;;;;;;;0.76;81.10;95807.19;5016589;28;20221;-89
2023/01/21 05:43:01;;;;;;;23.47;15.20;;;;;;;0.78;81.09;95799.44;5014961;28;20218;-89
2023/01/21 05:45:27;;;;;;;22.73;14.67;;;;;;;0.85;80.70;95803.16;5014410;28;20203;-88
2023/01/21 05:47:53;;;;;;;20.47;15.70;;;;;;;0.82;80.29;95805.91;5015202;28;20210;-87
2023/01/21 05:50:21;;;;;;;20.70;15.03;;;;;;;0.73;80.22;95809.91;5014803;28;20668;-87
2023/01/21 05:52:48;;;;;;;22.03;14.80;;;;;;;0.62;80.45;95810.69;5014555;28;20202;-87
2023/01/21 05:55:14;;;;;;;22.17;15.23;;;;;;;0.62;79.94;95812.41;5014957;28;20206;-88
2023/01/21 05:57:41;;;;;;;22.83;15.70;;;;;;;0.59;80.55;95821.03;5016608;28;20281;-87
2023/01/21 06:00:09;;;;;;;21.17;14.60;;;;;;;0.57;80.28;95825.44;5013922;28;20234;-88
2023/01/21 06:02:35;;;;;;;20.03;14.47;;;;;;;0.48;80.68;95821.00;5010897;28;20547;-87
2023/01/21 06:05:01;;;;;;;23.00;15.20;;;;;;;0.47;80.41;95823.63;5015444;28;20202;-88
2023/01/21 06:07:29;;;;;;;21.17;15.00;;;;;;;0.37;80.89;95827.75;5009831;28;20191;-88
2023/01/21 06:09:55;;;;;;;21.70;16.30;;;;;;;0.41;80.82;95832.47;5014921;28;20202;-88
2023/01/21 06:12:22;;;;;;;21.67;15.27;;;;;;;0.34;80.86;95829.59;5015101;28;20600;-88
2023/01/21 06:14:48;;;;;;;22.47;15.23;;;;;;;0.38;80.98;95821.78;4998268;28;20779;-87
2023/01/21 06:17:15;;;;;;;20.77;15.23;;;;;;;0.31;81.38;95821.38;4996825;28;20234;-88
2023/01/21 06:19:41;;;;;;;21.47;15.53;;;;;;;0.34;81.45;95823.72;5015911;28;20623;-88
2023/01/21 06:22:13;;;;;;;19.53;15.23;;;;;;;0.24;81.61;95831.13;5015264;28;20209;-88
2023/01/21 06:24:41;;;;;;;21.67;14.87;;;;;;;0.24;81.51;95827.78;5015907;28;20218;-88
2023/01/21 06:27:07;;;;;;;22.23;14.73;;;;;;;0.18;81.88;95831.56;5015812;28;20203;-88
2023/01/21 06:29:34;;;;;;;23.50;14.93;;;;;;;0.30;81.92;95833.25;5016530;28;20361;-88
2023/01/21 06:32:00;;;;;;;20.10;14.77;;;;;;;0.37;81.95;95843.75;5015383;28;20203;-88
2023/01/21 06:34:26;;;;;;;20.67;14.90;;;;;;;0.31;81.41;95846.72;5014422;28;20567;-88
2023/01/21 06:36:53;;;;;;;20.10;13.80;;;;;;;0.29;81.20;95839.22;5014742;28;20233;-88
2023/01/21 06:39:19;;;;;;;19.07;13.43;;;;;;;0.31;81.35;95839.13;5014372;28;20444;-87
2023/01/21 06:41:47;;;;;;;21.83;13.70;;;;;;;0.33;80.92;95842.34;5014976;28;20202;-89
2023/01/21 06:44:13;;;;;;;18.50;13.37;;;;;;;0.21;81.72;95856.66;5015359;28;20589;-87
2023/01/21 06:46:40;;;;;;;21.60;13.80;;;;;;;0.23;81.33;95851.50;5013951;28;20409;-88
2023/01/21 06:49:06;;;;;;;17.43;13.30;;;;;;;0.32;81.18;95853.38;5014397;28;20202;-88
2023/01/21 06:51:32;;;;;;;20.60;13.13;;;;;;;0.37;80.50;95863.22;5014792;28;20198;-87
2023/01/21 06:53:59;;;;;;;17.37;13.10;;;;;;;0.40;80.58;95851.13;5013601;28;20214;-88
2023/01/21 06:56:25;;;;;;;18.57;13.30;;;;;;;0.46;80.49;95848.16;5014797;28;20202;-87
2023/01/21 06:58:56;;;;;;;18.03;12.87;;;;;;;0.44;79.89;95849.97;5015692;28;20214;-87
2023/01/21 07:01:22;;;;;;;16.03;12.53;;;;;;;0.48;79.64;95846.31;5014769;28;20195;-87
2023/01/21 07:03:49;;;;;;;18.80;12.67;;;;;;;0.50;79.17;95854.63;5015293;28;20242;-88
2023/01/21 07:06:15;;;;;;;21.97;13.20;;;;;;;0.46;79.05;95848.16;5014902;28;20199;-88
2023/01/21 07:08:42;;;;;;;21.47;12.77;;;;;;;0.45;79.24;95855.88;5016312;28;20246;-88
2023/01/21 07:11:08;;;;;;;18.13;13.33;;;;;;;0.37;79.17;95864.00;5016750;28;20212;-87
2023/01/21 07:13:34;;;;;;;18.90;13.10;;;;;;;0.27;79.63;95865.56;5016141;28;20230;-88
2023/01/21 07:16:02;;;;;;;17.90;12.10;;;;;;;0.30;79.75;95873.75;5010275;28;20209;-89
2023/01/21 07:18:31;;;;;;;20.70;13.27;;;;;;;0.30;79.79;95872.94;5007050;28;20245;-87
2023/01/21 07:20:58;;;;;;;20.40;12.77;;;;;;;0.29;79.87;95873.84;5010978;28;20424;-88
2023/01/21 07:23:25;;;;;;;18.37;13.17;;;;;;;0.29;79.56;95879.72;5014032;28;20241;-88
2023/01/21 07:25:51;;;;;;;18.77;13.30;;;;;;;0.43;79.12;95876.22;5014263;28;20224;-88
2023/01/21 07:28:18;;;;;;;16.90;13.00;;;;;;;0.51;78.42;95873.16;5013131;28;20199;-88
2023/01/21 07:30:44;;;;;;;18.60;13.20;;;;;;;0.58;78.43;95876.88;5012171;28;20203;-87
2023/01/21 07:33:12;;;;;;;17.03;12.07;;;;;;;0.57;77.73;95878.63;5011776;28;20245;-87
2023/01/21 07:35:38;;;;;;;19.93;13.10;;;;;;;0.48;77.97;95883.50;5012564;28;20222;-88
2023/01/21 07:38:05;;;;;;;18.33;13.57;;;;;;;0.39;78.50;95886.66;5012343;28;20231;-88
2023/01/21 07:40:31;;;;;;;17.07;12.53;;;;;;;0.43;78.02;95881.28;5012622;28;20199;-88
2023/01/21 07:42:58;;;;;;;17.90;13.30;;;;;;;0.38;78.08;95890.16;5013077;28;20219;-88
2023/01/21 07:45:25;;;;;;;17.47;12.53;;;;;;;0.40;78.13;95891.63;5008873;28;20202;-87
2023/01/21 07:47:51;;;;;;;17.83;12.67;;;;;;;0.46;77.75;95883.63;5004443;28;20198;-89
2023/01/21 07:50:19;;;;;;;17.67;12.83;;;;;;;0.39;77.54;95891.75;5008227;28;20203;-88
2023/01/21 07:52:45;;;;;;;16.63;12.40;;;;;;;0.27;78.36;95899.28;5002885;28;20199;-88
2023/01/21 07:55:12;;;;;;;19.93;13.57;;;;;;;0.20;78.68;95899.81;5012707;28;20803;-88
2023/01/21 07:57:38;;;;;;;18.30;12.47;;;;;;;0.29;78.70;95891.59;5004257;28;20241;-88
2023/01/21 08:00:05;;;;;;;18.27;13.20;;;;;;;0.26;79.14;95895.13;5008311;28;20203;-88
2023/01/21 08:02:32;;;;;;;20.07;13.27;;;;;;;0.24;78.50;95896.16;5009635;28;20217;-87
2023/01/21 08:04:58;;;;;;;19.07;13.47;;;;;;;0.24;78.58;95902.03;5001967;28;20234;-88
2023/01/21 08:07:26;;;;;;;19.27;13.80;;;;;;;0.36;77.79;95899.56;4997706;28;20191;-87
2023/01/21 08:09:53;;;;;;;19.83;14.13;;;;;;;0.44;77.38;95898.09;4999030;28;20227;-87
2023/01/21 08:12:19;;;;;;;19.80;12.63;;;;;;;0.39;77.87;95899.34;5011445;28;20257;-88
2023/01/21 08:14:45;;;;;;;18.60;13.80;;;;;;;0.41;77.58;95890.72;4989134;28;20732;-88
2023/01/21 08:17:12;;;;;;;21.63;14.37;;;;;;;0.34;77.84;95892.88;5007149;28;20223;-87
2023/01/21 08:19:38;;;;;;;19.03;13.63;;;;;;;0.25;77.25;95898.56;5013523;28;20192;-88
2023/01/21 08:22:05;;;;;;;17.10;12.90;;;;;;;0.28;77.70;95895.84;5013281;28;20202;-87
2023/01/21 08:24:32;;;;;;;18.33;13.47;;;;;;;0.27;78.37;95904.34;5014088;28;20234;-87
2023/01/21 08:27:00;;;;;;;20.07;13.90;;;;;;;0.33;77.79;95895.53;5013711;28;20191;-88
2023/01/21 08:29:27;;;;;;;22.37;14.20;;;;;;;0.40;77.50;95889.09;5014162;28;20202;-87
2023/01/21 08:31:53;;;;;;;17.83;14.07;;;;;;;0.39;77.02;95900.16;5014611;28;20210;-89
2023/01/21 08:34:20;;;;;;;19.27;13.70;;;;;;;0.28;77.71;95900.91;5012560;28;20218;-88
2023/01/21 08:36:47;;;;;;;18.30;13.63;;;;;;;0.23;78.20;95902.94;4995480;28;20200;-88
2023/01/21 08:39:14;;;;;;;19.80;14.90;;;;;;;0.38;86.02;95901.09;5011920;28;20226;-88
2023/01/21 08:41:43;;;;;;;33.70;22.07;;;;;;;0.39;81.25;95902.69;5013895;28;20567;-88
2023/01/21 08:44:09;;;;;;;53.47;35.57;;;;;;;0.43;79.28;95906.63;5012932;28;20218;-89
2023/01/21 08:46:36;;;;;;;34.73;23.40;;;;;;;0.52;78.48;95903.47;5014433;28;20289;-88
2023/01/21 08:49:03;;;;;;;23.30;15.47;;;;;;;0.59;77.35;95907.16;5014290;28;20202;-88
2023/01/21 08:51:30;;;;;;;19.90;14.73;;;;;;;0.59;77.37;95899.56;5014728;28;20222;-88
2023/01/21 08:53:56;;;;;;;19.03;13.50;;;;;;;0.54;77.21;95909.22;5014867;28;20222;-88
2023/01/21 08:56:23;;;;;;;18.97;13.73;;;;;;;0.51;78.01;95906.09;5015012;28;20202;-88
2023/01/21 08:58:55;;;;;;;18.20;13.53;;;;;;;0.57;77.89;95914.09;5015084;28;20687;-88
2023/01/21 09:01:23;;;;;;;20.97;14.20;;;;;;;0.66;77.31;95913.44;5014754;28;20577;-88
2023/01/21 09:03:53;;;;;;;19.97;13.23;;;;;;;0.67;76.74;95911.69;5014077;28;20657;-88
2023/01/21 09:06:19;;;;;;;19.30;14.07;;;;;;;0.66;77.67;95915.97;5014989;28;20576;-88
2023/01/21 09:08:46;;;;;;;30.70;19.57;;;;;;;0.58;77.41;95925.00;5016496;28;20199;-88
2023/01/21 09:11:13;;;;;;;43.07;28.07;;;;;;;0.62;77.76;95927.22;5018758;28;20666;-88
2023/01/21 09:13:39;;;;;;;27.67;18.17;;;;;;;0.68;77.70;95918.38;5017821;28;20237;-88
2023/01/21 09:16:10;;;;;;;22.07;14.60;;;;;;;0.76;76.73;95920.41;5017780;28;20209;-87
2023/01/21 09:18:36;;;;;;;20.90;13.97;;;;;;;0.82;76.75;95910.63;5018356;28;20223;-88
2023/01/21 09:21:04;;;;;;;19.30;13.43;;;;;;;0.83;77.22;95916.50;5017986;28;20392;-88
2023/01/21 09:23:33;;;;;;;23.63;15.00;;;;;;;0.81;77.14;95918.31;5017874;28;20596;-88
2023/01/21 09:26:03;;;;;;;48.47;27.40;;;;;;;0.80;77.61;95907.38;5018725;28;20202;-88
2023/01/21 09:28:31;;;;;;;24.83;16.33;;;;;;;0.87;77.24;95908.56;5017647;28;20214;-88
2023/01/21 09:30:59;;;;;;;23.63;16.13;;;;;;;0.96;77.26;95910.44;5018070;28;20203;-89
2023/01/21 09:33:28;;;;;;;19.70;13.87;;;;;;;0.97;76.97;95912.03;5017129;28;20222;-87
2023/01/21 09:35:55;;;;;;;20.90;13.90;;;;;;;0.87;77.48;95921.25;5016642;28;20199;-88
2023/01/21 09:38:21;;;;;;;19.40;14.53;;;;;;;0.88;78.32;95910.19;5018256;28;20219;-88
2023/01/21 09:40:48;;;;;;;20.03;13.93;;;;;;;1.02;77.65;95916.78;5017751;28;20209;-88
2023/01/21 09:43:24;;;;;;;17.90;13.73;;;;;;;1.11;77.17;95916.16;5016942;28;20417;-88
2023/01/21 09:45:54;;;;;;;60.70;37.37;;;;;;;1.12;78.10;95920.31;5018064;28;20194;-88
2023/01/21 09:48:30;;;;;;;33.43;21.90;;;;;;;1.04;76.50;95910.69;5017550;28;20206;-88
2023/01/21 09:51:02;;;;;;;20.37;14.37;;;;;;;1.06;77.19;95918.19;5012558;28;20772;-89
2023/01/21 09:53:37;;;;;;;18.67;13.70;;;;;;;1.09;77.10;95909.56;5015804;28;20227;-88
2023/01/21 09:56:10;;;;;;;18.83;13.47;;;;;;;1.07;78.04;95912.22;5017266;28;20195;-88
2023/01/21 09:58:42;;;;;;;22.37;14.17;;;;;;;1.10;78.22;95921.31;4997460;28;20223;-87
2023/01/21 10:01:14;;;;;;;20.10;13.57;;;;;;;1.20;77.74;95917.19;5007523;28;20210;-87
2023/01/21 10:03:48;;;;;;;17.53;13.07;;;;;;;1.23;76.99;95920.31;5016300;28;20226;-88
2023/01/21 10:06:34;;;;;;;20.63;13.40;;;;;;;1.13;77.90;95914.31;5012852;28;20233;-87
2023/01/21 10:09:32;;;;;;;19.00;12.93;;;;;;;1.13;77.45;95905.91;5011970;28;20199;-88
2023/01/21 10:12:11;;;;;;;20.63;13.67;;;;;;;1.20;77.25;95912.13;5014326;28;20206;-88
2023/01/21 10:15:01;;;;;;;16.67;12.77;;;;;;;1.25;77.22;95905.00;5016091;28;20237;-87
2023/01/21 10:17:41;;;;;;;18.80;13.10;;;;;;;1.19;77.38;95910.50;5015263;28;20207;-87
2023/01/21 10:20:14;;;;;;;18.57;12.80;;;;;;;1.14;77.27;95900.72;5015430;28;20707;-88
2023/01/21 10:22:45;;;;;;;18.40;13.30;;;;;;;1.19;77.24;95902.91;5008615;28;20571;-88
2023/01/21 10:25:29;;;;;;;37.73;16.37;;;;;;;1.20;87.52;95902.78;5001299;28;20214;-88
2023/01/21 10:27:58;;;;;;;47.57;30.30;;;;;;;1.17;82.30;95903.00;5002947;28;20278;-88
2023/01/21 10:30:29;;;;;;;27.63;18.50;;;;;;;1.27;80.75;95906.50;5013580;28;20210;-87
2023/01/21 10:32:56;;;;;;;26.87;18.70;;;;;;;1.34;79.01;95899.28;5015187;28;20214;-88
2023/01/21 10:35:34;;;;;;;20.97;15.57;;;;;;;1.34;80.29;95904.34;5014985;28;20222;-88
2023/01/21 10:38:09;;;;;;;22.73;14.23;;;;;;;1.30;78.60;95903.75;5014741;28;20234;-88
2023/01/21 10:40:43;;;;;;;20.17;13.67;;;;;;;1.36;78.67;95907.56;5006205;28;20205;-87
2023/01/21 10:43:17;;;;;;;18.93;12.97;;;;;;;1.34;78.37;95902.63;5014427;28;20228;-88
2023/01/21 10:45:54;;;;;;;17.57;12.67;;;;;;;1.31;78.63;95902.84;5015017;28;20204;-88
2023/01/21 10:48:28;;;;;;;19.07;12.90;;;;;;;1.31;78.29;95897.75;5014650;28;20195;-87
2023/01/21 10:51:04;;;;;;;19.17;13.07;;;;;;;1.37;77.68;95901.56;5014702;28;20198;-88
2023/01/21 10:53:36;;;;;;;16.80;12.33;;;;;;;1.35;77.95;95900.84;5013899;28;20241;-87
2023/01/21 10:56:15;;;;;;;19.40;12.60;;;;;;;1.26;77.91;95899.00;5013897;28;20202;-88
2023/01/21 10:58:46;;;;;;;19.33;12.60;;;;;;;1.21;77.95;95893.47;5013068;28;20222;-88
2023/01/21 11:01:20;;;;;;;17.77;12.17;;;;;;;1.28;82.27;95902.25;5012442;28;20218;-87
2023/01/21 11:03:49;;;;;;;68.63;43.13;;;;;;;1.41;79.22;95892.81;5013582;28;20248;-88
2023/01/21 11:06:19;;;;;;;35.50;24.37;;;;;;;1.58;79.22;95892.38;5012949;28;20214;-88
2023/01/21 11:08:53;;;;;;;20.90;15.07;;;;;;;1.59;77.26;95893.19;5012853;28;20199;-88
2023/01/21 11:11:26;;;;;;;18.40;12.40;;;;;;;1.57;77.35;95887.41;5013965;28;20285;-87
2023/01/21 11:13:53;;;;;;;15.83;12.00;;;;;;;1.34;77.09;95881.50;5003083;28;20228;-88
2023/01/21 11:16:33;;;;;;;17.87;11.90;;;;;;;1.31;77.53;95885.09;5012914;28;20203;-88
2023/01/21 11:19:00;;;;;;;18.47;11.60;;;;;;;1.43;77.78;95885.91;5014331;28;20222;-87
2023/01/21 11:21:27;;;;;;;16.20;11.93;;;;;;;1.56;77.25;95881.53;5012379;28;20207;-87
2023/01/21 11:23:55;;;;;;;18.13;11.83;;;;;;;1.46;77.63;95877.25;5013518;28;20229;-87
2023/01/21 11:26:25;;;;;;;15.10;11.67;;;;;;;1.43;77.92;95882.56;5009655;28;20198;-87
2023/01/21 11:29:06;;;;;;;22.93;14.00;;;;;;;1.40;77.80;95883.59;5013760;28;20235;-88
2023/01/21 11:31:33;;;;;;;29.83;18.23;;;;;;;1.24;77.93;95878.84;5012273;28;20671;-87
2023/01/21 11:34:05;;;;;;;36.83;21.33;;;;;;;1.25;78.78;95880.44;5012740;28;20230;-87
2023/01/21 11:36:33;;;;;;;21.57;14.43;;;;;;;1.26;79.37;95873.66;5011931;28;20194;-88
2023/01/21 11:39:02;;;;;;;20.00;12.47;;;;;;;1.29;78.84;95864.09;5012419;28;20223;-87